.
WxDataArchive / Data Records for 2011-04-10
2011-04-09 April 2011 2011-04-11

Data Records for Sunday, 10 April 2011

Time	Temp	Chill	HIndex	Humid	Dewpt	 Wind 	HiWind	WindDir	Rain 	Barom 
-----	----	-----	------	-----	-----	------	------	-------	-----	----- 
00:00	51.6	51.6	51.6	93	49.6	0	0	---	0.00	29.939 
00:05	51.4	51.4	51.4	93	49.4	0	0	---	0.00	29.939 
00:10	51.3	51.3	51.3	94	49.6	0	1	68	0.00	29.939 
00:15	51.4	51.4	51.4	94	49.7	0	2	68	0.00	29.941 
00:20	51.4	51.4	51.4	94	49.7	0	1	68	0.00	29.941 
00:25	51.3	51.3	51.3	94	49.6	0	0	---	0.00	29.941 
00:30	51.0	51.0	51.0	94	49.3	0	0	---	0.00	29.947 
00:35	50.7	50.7	50.7	94	49.0	0	0	---	0.00	29.947 
00:40	50.4	50.4	50.4	94	48.7	0	0	---	0.00	29.947 
00:45	50.1	50.1	50.1	94	48.4	0	0	---	0.00	29.949 
00:50	49.9	49.9	49.9	94	48.2	0	0	---	0.00	29.949 
00:55	49.6	49.6	49.6	94	47.9	0	0	---	0.00	29.949 
01:00	49.4	49.4	49.4	94	47.7	0	1	68	0.00	29.944 
01:05	49.5	49.5	49.5	95	48.1	0	1	68	0.00	29.944 
01:10	49.5	49.5	49.5	95	48.1	0	0	---	0.00	29.944 
01:15	49.5	49.5	49.5	95	48.1	0	2	68	0.00	29.932 
01:20	49.6	49.6	49.6	95	48.2	0	2	68	0.00	29.932 
01:25	49.8	49.8	49.8	95	48.4	0	2	68	0.00	29.932 
01:30	49.8	49.8	49.8	96	48.7	0	1	68	0.00	29.931 
01:35	50.1	50.1	50.1	96	49.0	0	2	68	0.00	29.931 
01:40	50.4	50.4	50.4	96	49.3	0	2	68	0.00	29.931 
01:45	50.7	50.7	50.7	96	49.6	0	2	68	0.00	29.925 
01:50	51.0	51.0	51.0	96	49.9	0	1	68	0.00	29.925 
01:55	51.1	51.1	51.1	96	50.0	0	1	68	0.00	29.925 
02:00	51.4	51.4	51.4	96	50.3	0	1	68	0.00	29.926 
02:05	51.7	51.7	51.7	96	50.6	0	1	68	0.00	29.926 
02:10	52.2	52.2	52.2	96	51.1	0	2	68	0.00	29.926 
02:15	52.6	52.6	52.6	96	51.5	0	2	68	0.00	29.922 
02:20	52.8	52.8	52.8	96	51.7	0	2	68	0.00	29.922 
02:25	53.2	53.2	53.2	96	52.1	0	3	68	0.00	29.922 
02:30	53.5	53.5	53.5	96	52.4	0	2	158	0.00	29.917 
02:35	53.8	53.8	53.8	96	52.7	1	2	135	0.00	29.917 
02:40	54.1	54.1	54.1	96	53.0	1	4	90	0.00	29.917 
02:45	54.2	54.2	54.2	96	53.1	1	3	112	0.00	29.902 
02:50	54.4	54.4	54.4	96	53.3	1	5	90	0.00	29.902 
02:55	54.4	54.4	54.4	96	53.3	1	3	112	0.00	29.902 
03:00	54.4	54.4	54.4	96	53.3	1	3	135	0.00	29.896 
03:05	54.4	54.4	54.4	96	53.3	1	3	112	0.00	29.896 
03:10	54.4	54.4	54.4	96	53.3	1	3	112	0.00	29.896 
03:15	54.4	54.4	54.4	97	53.6	1	2	112	0.00	29.888 
03:20	54.4	54.4	54.4	97	53.6	0	2	135	0.00	29.888 
03:25	54.4	54.4	54.4	97	53.6	1	3	112	0.00	29.888 
03:30	54.4	54.4	54.4	97	53.6	1	4	135	0.00	29.889 
03:35	54.4	54.4	54.4	97	53.6	1	5	135	0.00	29.889 
03:40	54.4	54.4	54.4	97	53.6	1	3	90	0.00	29.889 
03:45	54.4	54.4	54.4	97	53.6	1	3	135	0.00	29.883 
03:50	54.4	54.4	54.4	97	53.6	1	3	180	0.00	29.883 
03:55	54.2	54.2	54.2	97	53.4	1	3	135	0.00	29.883 
04:00	54.2	54.2	54.2	97	53.4	1	3	112	0.00	29.868 
04:05	54.2	54.2	54.2	97	53.4	1	3	112	0.00	29.868 
04:10	54.2	54.2	54.2	97	53.4	1	4	68	0.00	29.868 
04:15	54.2	54.2	54.2	97	53.4	1	3	112	0.00	29.851 
04:20	54.1	54.1	54.1	97	53.3	1	4	135	0.00	29.851 
04:25	54.1	54.1	54.1	97	53.3	1	3	158	0.00	29.851 
04:30	54.1	54.1	54.1	97	53.3	1	3	135	0.00	29.859 
04:35	54.1	54.1	54.1	97	53.3	1	4	90	0.00	29.859 
04:40	53.9	53.9	53.9	97	53.1	1	4	112	0.00	29.859 
04:45	53.9	53.9	53.9	97	53.1	1	3	112	0.00	29.852 
04:50	53.8	53.8	53.8	97	53.0	0	2	112	0.00	29.852 
04:55	53.8	53.8	53.8	97	53.0	0	1	135	0.00	29.852 
05:00	53.6	53.6	53.6	97	52.8	0	2	135	0.00	29.850 
05:05	53.5	53.5	53.5	97	52.7	0	2	135	0.00	29.850 
05:10	53.5	53.5	53.5	97	52.7	0	2	135	0.00	29.850 
05:15	53.5	53.5	53.5	97	52.7	0	1	135	0.00	29.845 
05:20	53.3	53.3	53.3	97	52.5	0	2	135	0.00	29.845 
05:25	53.2	53.2	53.2	97	52.4	0	0	---	0.00	29.845 
05:30	53.1	53.1	53.1	97	52.3	0	1	135	0.00	29.851 
05:35	53.1	53.1	53.1	97	52.3	0	1	135	0.00	29.851 
05:40	53.1	53.1	53.1	97	52.3	0	1	135	0.00	29.851 
05:45	53.2	53.2	53.2	97	52.4	0	1	135	0.00	29.849 
05:50	53.2	53.2	53.2	97	52.4	0	1	135	0.00	29.849 
05:55	53.2	53.2	53.2	97	52.4	0	1	135	0.00	29.849 
06:00	53.1	53.1	53.1	97	52.3	0	1	135	0.00	29.846 
06:05	53.1	53.1	53.1	97	52.3	0	1	135	0.00	29.846 
06:10	53.2	53.2	53.2	97	52.4	0	1	135	0.00	29.846 
06:15	53.3	53.3	53.3	97	52.5	0	2	135	0.00	29.841 
06:20	53.5	53.5	53.5	97	52.7	0	2	135	0.00	29.841 
06:25	53.9	53.9	53.9	97	53.1	0	3	135	0.00	29.841 
06:30	54.1	54.1	54.1	97	53.3	0	1	135	0.00	29.837 
06:35	53.9	53.9	53.9	97	53.1	0	1	135	0.00	29.837 
06:40	53.9	53.9	53.9	97	53.1	0	1	135	0.00	29.837 
06:45	53.9	53.9	53.9	97	53.1	0	1	135	0.00	29.835 
06:50	54.1	54.1	54.1	97	53.3	0	2	135	0.00	29.835 
06:55	54.2	54.2	54.2	97	53.4	0	2	135	0.00	29.835 
07:00	54.5	54.5	54.5	97	53.7	0	2	135	0.00	29.825 
07:05	54.5	54.5	54.5	97	53.7	0	2	135	0.00	29.825 
07:10	54.7	54.7	54.7	97	53.9	1	3	135	0.00	29.825 
07:15	54.8	54.8	54.8	97	54.0	1	2	135	0.00	29.822 
07:20	55.0	55.0	55.0	97	54.2	0	2	135	0.00	29.822 
07:25	55.1	55.1	55.1	97	54.3	0	2	135	0.00	29.822 
07:30	55.3	55.3	55.3	97	54.5	0	2	135	0.00	29.821 
07:35	55.6	55.6	55.6	97	54.8	1	4	135	0.00	29.821 
07:40	55.7	55.7	55.7	97	54.9	1	3	90	0.00	29.821 
07:45	56.0	56.0	56.0	97	55.2	1	4	112	0.00	29.818 
07:50	56.3	56.3	56.3	97	55.5	1	5	112	0.00	29.818 
07:55	56.6	56.6	56.6	96	55.5	1	4	68	0.00	29.818 
08:00	56.9	56.9	56.9	96	55.8	1	5	68	0.00	29.816 
08:05	57.2	57.2	57.2	96	56.1	1	7	112	0.00	29.816 
08:10	57.5	57.5	57.5	95	56.1	1	4	68	0.00	29.816 
08:15	57.8	57.8	57.8	95	56.4	1	5	90	0.00	29.813 
08:20	58.1	58.1	58.1	94	56.4	1	4	90	0.00	29.813 
08:25	58.4	58.4	58.4	93	56.4	1	4	90	0.00	29.813 
08:30	58.6	58.6	58.6	92	56.3	1	4	90	0.00	29.808 
08:35	59.0	59.0	59.0	91	56.4	2	6	90	0.00	29.808 
08:40	59.6	59.6	59.6	90	56.7	1	4	45	0.00	29.808 
08:45	60.1	60.1	60.1	89	56.8	2	7	45	0.00	29.803 
08:50	60.7	60.7	60.7	88	57.1	1	5	135	0.00	29.803 
08:55	61.2	61.2	61.2	87	57.3	1	4	22	0.00	29.803 
09:00	61.8	61.8	61.8	86	57.6	1	3	225	0.00	29.799 
09:05	62.4	62.4	62.4	85	57.8	2	6	248	0.00	29.799 
09:10	63.2	63.2	63.2	84	58.3	1	6	225	0.00	29.799 
09:15	63.9	63.9	63.9	82	58.3	2	5	248	0.00	29.799 
09:20	64.5	64.5	64.5	81	58.5	2	5	270	0.00	29.799 
09:25	64.8	64.8	64.8	80	58.5	1	5	248	0.00	29.799 
09:30	64.8	64.8	64.8	80	58.5	1	6	270	0.00	29.792 
09:35	65.0	65.0	65.0	79	58.3	1	7	270	0.00	29.792 
09:40	65.2	65.2	65.2	79	58.5	2	7	248	0.00	29.792 
09:45	65.5	65.5	65.5	79	58.8	2	6	292	0.00	29.783 
09:50	65.8	65.8	65.8	79	59.1	1	6	270	0.00	29.783 
09:55	66.1	66.1	66.1	77	58.7	3	9	248	0.00	29.783 
10:00	66.6	66.6	66.6	77	59.2	3	7	248	0.00	29.790 
10:05	66.9	66.9	66.9	77	59.4	2	6	248	0.00	29.790 
10:10	67.1	67.1	67.1	76	59.3	2	6	248	0.00	29.790 
10:15	67.3	67.3	67.3	76	59.5	2	6	248	0.00	29.796 
10:20	67.6	67.6	67.6	76	59.8	2	6	248	0.00	29.796 
10:25	68.1	68.1	68.1	76	60.2	2	9	248	0.00	29.796 
10:30	68.8	68.8	68.8	73	59.8	3	10	248	0.00	29.795 
10:35	69.6	69.6	69.6	73	60.6	2	6	248	0.00	29.795 
10:40	70.4	70.4	70.4	71	60.5	2	6	270	0.00	29.795 
10:45	70.9	70.9	70.9	70	60.6	3	7	270	0.00	29.789 
10:50	71.3	71.3	71.3	69	60.6	2	7	270	0.00	29.789 
10:55	71.8	71.8	71.8	69	61.1	2	5	270	0.00	29.789 
11:00	72.5	72.5	72.5	68	61.3	1	6	248	0.00	29.786 
11:05	72.8	72.8	72.8	67	61.2	2	5	270	0.00	29.786 
11:10	73.3	73.3	73.3	66	61.2	2	6	248	0.00	29.786 
11:15	73.9	73.9	73.9	65	61.4	3	7	248	0.00	29.777 
11:20	74.2	74.2	74.2	63	60.8	4	11	270	0.00	29.777 
11:25	74.6	74.6	74.6	63	61.2	4	10	248	0.00	29.777 
11:30	74.9	74.9	74.9	62	61.0	3	10	248	0.00	29.775 
11:35	75.4	75.4	77.6	61	61.0	4	13	248	0.00	29.775 
11:40	75.6	75.6	77.7	62	61.6	4	11	270	0.00	29.775 
11:45	76.0	76.0	78.0	61	61.6	3	7	248	0.00	29.774 
11:50	76.1	76.1	78.1	59	60.7	4	7	248	0.00	29.774 
11:55	76.7	76.7	78.5	61	62.2	2	5	248	0.00	29.774 
12:00	76.8	76.8	78.6	58	60.9	4	10	248	0.00	29.770 
12:05	77.0	77.0	78.8	59	61.6	3	7	248	0.00	29.770 
12:10	77.4	77.4	79.1	58	61.4	3	7	248	0.00	29.770 
12:15	77.6	77.6	79.2	58	61.6	4	11	248	0.00	29.768 
12:20	77.6	77.6	79.2	58	61.6	4	10	248	0.00	29.768 
12:25	77.9	77.9	79.5	57	61.4	3	6	248	0.00	29.768 
12:30	78.1	78.1	79.6	57	61.6	4	9	248	0.00	29.758 
12:35	78.5	78.5	80.0	57	62.0	3	6	248	0.00	29.758 
12:40	78.8	78.8	80.1	54	60.7	3	8	248	0.00	29.758 
12:45	79.2	79.2	80.5	55	61.6	3	10	248	0.00	29.747 
12:50	79.2	79.2	80.4	54	61.1	4	10	248	0.00	29.747 
12:55	79.2	79.2	80.4	54	61.1	4	12	248	0.00	29.747 
13:00	79.4	79.4	80.6	54	61.3	4	10	270	0.00	29.741 
13:05	79.4	79.4	80.8	56	62.3	4	9	248	0.00	29.741 
13:10	79.4	79.4	80.6	54	61.3	4	12	248	0.00	29.741 
13:15	79.6	79.6	80.8	54	61.5	4	13	248	0.00	29.728 
13:20	79.8	79.8	81.0	54	61.7	5	10	248	0.00	29.728 
13:25	79.9	79.9	81.2	55	62.3	5	11	248	0.00	29.728 
13:30	79.9	79.9	81.1	54	61.7	5	14	270	0.00	29.721 
13:35	79.9	79.9	81.2	55	62.3	5	12	248	0.00	29.721 
13:40	80.3	80.3	81.5	54	62.1	4	9	248	0.00	29.721 
13:45	80.5	80.5	81.8	55	62.8	3	11	248	0.00	29.708 
13:50	80.5	80.5	81.8	55	62.8	3	9	248	0.00	29.708 
13:55	80.5	80.5	81.7	54	62.3	3	5	248	0.00	29.708 
14:00	80.5	80.5	81.7	54	62.3	6	13	270	0.00	29.702 
14:05	80.7	80.7	82.0	55	63.0	4	9	248	0.00	29.702 
14:10	80.7	80.7	81.9	54	62.5	4	7	248	0.00	29.702 
14:15	80.7	80.7	81.9	54	62.5	4	12	248	0.00	29.693 
14:20	80.7	80.7	82.0	55	63.0	4	13	248	0.00	29.693 
14:25	80.7	80.7	81.9	54	62.5	4	12	248	0.00	29.693 
14:30	80.9	80.9	82.3	55	63.2	4	12	248	0.00	29.690 
14:35	80.9	80.9	82.1	54	62.7	4	12	248	0.00	29.690 
14:40	80.7	80.7	82.2	56	63.5	3	9	270	0.00	29.690 
14:45	81.1	81.1	82.5	55	63.4	3	7	248	0.00	29.687 
14:50	81.4	81.4	82.5	53	62.6	3	10	248	0.00	29.687 
14:55	81.4	81.4	82.5	53	62.6	5	11	248	0.00	29.687 
15:00	81.6	81.6	82.8	53	62.8	3	10	248	0.00	29.681 
15:05	81.8	81.8	82.8	52	62.4	3	10	248	0.00	29.681 
15:10	82.2	82.2	83.5	53	63.3	3	9	248	0.00	29.681 
15:15	82.0	82.0	83.4	54	63.7	3	6	248	0.00	29.669 
15:20	82.0	82.0	83.4	54	63.7	3	7	248	0.00	29.669 
15:25	81.8	81.8	83.2	54	63.5	3	7	248	0.00	29.669 
15:30	81.6	81.6	82.9	54	63.3	4	10	270	0.00	29.662 
15:35	81.6	81.6	82.9	54	63.3	4	10	248	0.00	29.662 
15:40	81.8	81.8	83.0	53	63.0	5	12	248	0.00	29.662 
15:45	81.8	81.8	82.8	52	62.4	3	9	270	0.00	29.661 
15:50	81.8	81.8	82.8	52	62.4	4	10	270	0.00	29.661 
15:55	81.8	81.8	83.0	53	63.0	3	6	315	0.00	29.661 
16:00	81.8	81.8	83.0	53	63.0	4	10	68	0.00	29.652 
16:05	82.0	82.0	83.1	52	62.6	4	10	248	0.00	29.652 
16:10	82.6	82.6	83.8	52	63.2	3	11	248	0.00	29.652 
16:15	82.8	82.8	83.8	51	62.8	3	9	248	0.00	29.639 
16:20	82.6	82.6	83.4	50	62.0	4	10	248	0.00	29.639 
16:25	82.8	82.8	83.8	51	62.8	4	9	248	0.00	29.639 
16:30	82.6	82.6	83.4	50	62.0	4	11	248	0.00	29.630 
16:35	82.8	82.8	83.7	50	62.2	3	10	248	0.00	29.630 
16:40	83.2	83.2	84.0	49	62.0	3	8	270	0.00	29.630 
16:45	83.4	83.4	84.0	48	61.6	4	9	248	0.00	29.624 
16:50	83.4	83.4	84.0	48	61.6	6	15	248	0.00	29.624 
16:55	83.2	83.2	83.8	48	61.4	4	13	270	0.00	29.624 
17:00	83.0	83.0	83.5	48	61.3	3	7	248	0.00	29.622 
17:05	83.2	83.2	84.0	49	62.0	4	11	270	0.00	29.622 
17:10	83.2	83.2	83.6	47	60.8	5	15	248	0.00	29.622 
17:15	83.2	83.2	83.4	46	60.2	6	12	248	0.00	29.615 
17:20	83.2	83.2	83.3	45	59.6	5	8	248	0.00	29.615 
17:25	83.4	83.4	83.5	45	59.8	5	11	270	0.00	29.615 
17:30	83.4	83.4	83.5	45	59.8	5	13	248	0.00	29.614 
17:35	83.4	83.4	83.3	44	59.2	5	13	248	0.00	29.614 
17:40	83.4	83.4	83.7	46	60.4	3	11	248	0.00	29.614 
17:45	83.4	83.4	83.5	45	59.8	4	12	248	0.00	29.611 
17:50	83.2	83.2	83.3	45	59.6	4	13	248	0.00	29.611 
17:55	82.8	82.8	83.0	46	59.9	4	10	248	0.00	29.611 
18:00	82.8	82.8	82.9	45	59.3	6	14	270	0.00	29.610 
18:05	82.8	82.8	83.0	46	59.9	6	14	248	0.00	29.610 
18:10	82.6	82.6	83.0	47	60.3	3	9	248	0.00	29.610 
18:15	82.4	82.4	82.7	47	60.1	4	9	270	0.00	29.604 
18:20	82.2	82.2	82.5	47	59.9	6	15	248	0.00	29.604 
18:25	82.0	82.0	82.3	47	59.8	5	11	248	0.00	29.604 
18:30	82.0	82.0	82.3	47	59.8	5	12	248	0.00	29.601 
18:35	81.8	81.8	82.3	48	60.2	5	9	248	0.00	29.601 
18:40	81.6	81.6	82.2	49	60.6	5	15	248	0.00	29.601 
18:45	81.6	81.6	82.2	49	60.6	6	14	248	0.00	29.607 
18:50	81.4	81.4	82.1	50	60.9	4	12	248	0.00	29.607 
18:55	81.1	81.1	82.0	51	61.2	4	14	270	0.00	29.607 
19:00	80.9	80.9	81.9	52	61.6	3	10	225	0.00	29.610 
19:05	80.7	80.7	81.7	52	61.4	4	11	248	0.00	29.610 
19:10	80.5	80.5	81.5	52	61.2	5	12	248	0.00	29.610 
19:15	80.5	80.5	81.4	51	60.7	5	14	270	0.00	29.611 
19:20	80.5	80.5	81.5	52	61.2	3	6	248	0.00	29.611 
19:25	80.3	80.3	81.3	52	61.0	3	10	270	0.00	29.611 
19:30	80.3	80.3	81.4	53	61.6	5	12	248	0.00	29.616 
19:35	80.1	80.1	81.2	53	61.4	4	11	270	0.00	29.616 
19:40	79.9	79.9	81.0	53	61.2	5	13	248	0.00	29.616 
19:45	79.8	79.8	80.9	53	61.1	3	14	248	0.00	29.613 
19:50	79.4	79.4	80.6	54	61.3	3	9	248	0.00	29.613 
19:55	79.0	79.0	80.3	54	60.9	4	10	248	0.00	29.613 
20:00	78.8	78.8	80.1	55	61.2	4	14	270	0.00	29.620 
20:05	78.6	78.6	80.0	55	61.1	4	9	270	0.00	29.620 
20:10	78.6	78.6	80.0	55	61.1	4	10	248	0.00	29.620 
20:15	78.3	78.3	79.8	56	61.3	3	7	248	0.00	29.611 
20:20	78.1	78.1	79.6	57	61.6	3	11	270	0.00	29.611 
20:25	78.1	78.1	79.6	57	61.6	4	10	248	0.00	29.611 
20:30	77.9	77.9	79.5	57	61.4	3	7	248	0.00	29.624 
20:35	77.9	77.9	79.5	58	61.9	2	5	248	0.00	29.624 
20:40	77.7	77.7	79.3	58	61.7	2	7	248	0.00	29.624 
20:45	77.6	77.6	79.2	58	61.6	3	7	248	0.00	29.633 
20:50	77.7	77.7	79.3	58	61.7	3	10	248	0.00	29.633 
20:55	77.7	77.7	79.3	58	61.7	4	7	248	0.00	29.633 
21:00	77.6	77.6	79.3	59	62.1	2	6	248	0.00	29.639 
21:05	77.4	77.4	79.1	59	61.9	3	10	248	0.00	29.639 
21:10	77.4	77.4	79.1	59	61.9	4	9	248	0.00	29.639 
21:15	77.4	77.4	79.1	59	61.9	3	10	248	0.00	29.635 
21:20	77.0	77.0	78.8	60	62.0	3	11	270	0.00	29.635 
21:25	76.8	76.8	78.6	60	61.8	4	9	248	0.00	29.635 
21:30	76.7	76.7	78.5	60	61.7	3	6	248	0.00	29.627 
21:35	76.5	76.5	78.4	60	61.6	4	9	248	0.00	29.627 
21:40	76.5	76.5	78.4	60	61.6	3	9	248	0.00	29.627 
21:45	76.3	76.3	78.2	60	61.4	4	10	248	0.00	29.619 
21:50	76.3	76.3	78.2	60	61.4	4	10	248	0.00	29.619 
21:55	76.3	76.3	78.2	60	61.4	4	12	248	0.00	29.619 
22:00	76.3	76.3	78.2	60	61.4	5	16	248	0.00	29.623 
22:05	76.3	76.3	78.2	60	61.4	4	13	248	0.00	29.623 
22:10	76.0	76.0	78.0	61	61.6	3	7	270	0.00	29.623 
22:15	75.6	75.6	77.7	61	61.2	3	10	248	0.00	29.618 
22:20	75.4	75.4	77.5	62	61.5	4	11	248	0.00	29.618 
22:25	75.4	75.4	77.5	62	61.5	4	10	248	0.00	29.618 
22:30	75.4	75.4	77.5	62	61.5	3	6	270	0.00	29.617 
22:35	75.3	75.3	77.5	62	61.4	3	7	248	0.00	29.617 
22:40	74.9	74.9	74.9	63	61.4	3	7	248	0.00	29.617 
22:45	74.7	74.7	74.7	63	61.2	3	10	248	0.00	29.603 
22:50	74.6	74.6	74.6	63	61.2	3	7	248	0.00	29.603 
22:55	74.4	74.4	74.4	64	61.4	3	11	248	0.00	29.603 
23:00	74.4	74.4	74.4	64	61.4	3	11	248	0.00	29.600 
23:05	74.0	74.0	74.0	64	61.0	3	6	248	0.00	29.600 
23:10	74.2	74.2	74.2	63	60.8	4	13	248	0.00	29.600 
23:15	74.4	74.4	74.4	63	61.0	3	7	248	0.00	29.594 
23:20	74.4	74.4	74.4	63	61.0	4	10	248	0.00	29.594 
23:25	74.2	74.2	74.2	63	60.8	4	7	248	0.00	29.594 
23:30	74.4	74.4	74.4	62	60.5	4	10	248	0.00	29.589 
23:35	74.4	74.4	74.4	62	60.5	3	10	270	0.00	29.589 
23:40	74.4	74.4	74.4	62	60.5	4	10	248	0.00	29.589 
23:45	74.2	74.2	74.2	62	60.3	4	9	248	0.00	29.585 
23:50	74.2	74.2	74.2	62	60.3	4	11	248	0.00	29.585 
23:55	74.4	74.4	74.4	62	60.5	4	11	248	0.00	29.585 

CoCoRaHS
IN-AL-39
A2 Web Hosting
Creative Commons License
GoDaddy
search engine by freefind advanced

loaded 2018-11-20 06:56:53 • last modified 2010-11-18 10:43:29
Privacy PolicyDisclaimer
• wx.awcolley.com is powered by PmWiki v.2002016 •
• all content (unless otherwise noted) © 2018 A W Colley